sensor_id;sensor_type;location;lat;lon;timestamp;P1;durP1;ratioP1;P2;durP2;ratioP2
17193;SDS011;8713;48.388;10.928;2022-07-17T00:00:23;7.72;;;3.17;;
17193;SDS011;8713;48.388;10.928;2022-07-17T00:01:33;6.95;;;3.15;;
17193;SDS011;8713;48.388;10.928;2022-07-17T00:02:42;7.57;;;3.67;;
17193;SDS011;8713;48.388;10.928;2022-07-17T00:03:52;7.78;;;3.78;;
17193;SDS011;8713;48.388;10.928;2022-07-17T00:05:01;7.20;;;3.67;;
17193;SDS011;8713;48.388;10.928;2022-07-17T00:06:11;7.95;;;3.63;;
17193;SDS011;8713;48.388;10.928;2022-07-17T00:07:22;5.65;;;3.60;;
17193;SDS011;8713;48.388;10.928;2022-07-17T00:08:31;6.10;;;3.72;;
17193;SDS011;8713;48.388;10.928;2022-07-17T00:09:40;8.32;;;3.65;;
17193;SDS011;8713;48.388;10.928;2022-07-17T00:10:50;4.57;;;3.30;;
17193;SDS011;8713;48.388;10.928;2022-07-17T00:11:59;5.35;;;3.40;;
17193;SDS011;8713;48.388;10.928;2022-07-17T00:13:09;5.75;;;3.65;;
17193;SDS011;8713;48.388;10.928;2022-07-17T00:14:19;5.47;;;3.60;;
17193;SDS011;8713;48.388;10.928;2022-07-17T00:15:29;5.68;;;3.67;;
17193;SDS011;8713;48.388;10.928;2022-07-17T00:16:38;6.45;;;3.58;;
17193;SDS011;8713;48.388;10.928;2022-07-17T00:17:48;6.18;;;3.63;;
17193;SDS011;8713;48.388;10.928;2022-07-17T00:18:57;8.48;;;3.40;;
17193;SDS011;8713;48.388;10.928;2022-07-17T00:20:07;6.13;;;3.50;;
17193;SDS011;8713;48.388;10.928;2022-07-17T00:21:18;5.43;;;3.30;;
17193;SDS011;8713;48.388;10.928;2022-07-17T00:22:27;6.63;;;3.78;;
17193;SDS011;8713;48.388;10.928;2022-07-17T00:23:36;6.00;;;3.53;;
17193;SDS011;8713;48.388;10.928;2022-07-17T00:24:46;5.57;;;3.53;;
17193;SDS011;8713;48.388;10.928;2022-07-17T00:25:55;5.82;;;3.65;;
17193;SDS011;8713;48.388;10.928;2022-07-17T00:27:05;5.07;;;3.45;;
17193;SDS011;8713;48.388;10.928;2022-07-17T00:28:15;4.40;;;3.22;;
17193;SDS011;8713;48.388;10.928;2022-07-17T00:29:24;5.88;;;3.40;;
17193;SDS011;8713;48.388;10.928;2022-07-17T00:30:33;7.00;;;3.38;;
17193;SDS011;8713;48.388;10.928;2022-07-17T00:31:43;5.45;;;3.70;;
17193;SDS011;8713;48.388;10.928;2022-07-17T00:32:53;4.63;;;3.45;;
17193;SDS011;8713;48.388;10.928;2022-07-17T00:34:02;4.95;;;3.22;;
17193;SDS011;8713;48.388;10.928;2022-07-17T00:35:12;8.43;;;3.50;;
17193;SDS011;8713;48.388;10.928;2022-07-17T00:36:21;7.97;;;3.70;;
17193;SDS011;8713;48.388;10.928;2022-07-17T00:37:31;11.43;;;3.75;;
17193;SDS011;8713;48.388;10.928;2022-07-17T00:38:45;5.38;;;3.20;;
17193;SDS011;8713;48.388;10.928;2022-07-17T00:39:55;6.95;;;3.40;;
17193;SDS011;8713;48.388;10.928;2022-07-17T00:41:04;7.40;;;3.15;;
17193;SDS011;8713;48.388;10.928;2022-07-17T00:42:15;5.30;;;3.42;;
17193;SDS011;8713;48.388;10.928;2022-07-17T00:43:25;5.88;;;3.17;;
17193;SDS011;8713;48.388;10.928;2022-07-17T00:44:35;5.45;;;3.10;;
17193;SDS011;8713;48.388;10.928;2022-07-17T00:45:45;6.43;;;3.30;;
17193;SDS011;8713;48.388;10.928;2022-07-17T00:46:54;8.20;;;3.83;;
17193;SDS011;8713;48.388;10.928;2022-07-17T00:48:04;6.80;;;3.38;;
17193;SDS011;8713;48.388;10.928;2022-07-17T00:49:17;7.68;;;3.40;;
17193;SDS011;8713;48.388;10.928;2022-07-17T00:50:28;5.00;;;3.40;;
17193;SDS011;8713;48.388;10.928;2022-07-17T00:51:40;5.05;;;3.60;;
17193;SDS011;8713;48.388;10.928;2022-07-17T00:52:50;4.60;;;3.20;;
17193;SDS011;8713;48.388;10.928;2022-07-17T00:54:00;5.03;;;3.25;;
17193;SDS011;8713;48.388;10.928;2022-07-17T00:55:11;5.65;;;3.38;;
17193;SDS011;8713;48.388;10.928;2022-07-17T00:56:22;5.78;;;3.22;;
17193;SDS011;8713;48.388;10.928;2022-07-17T00:57:32;4.80;;;3.10;;
17193;SDS011;8713;48.388;10.928;2022-07-17T00:58:41;5.15;;;3.40;;
17193;SDS011;8713;48.388;10.928;2022-07-17T00:59:51;5.65;;;3.60;;
17193;SDS011;8713;48.388;10.928;2022-07-17T01:01:02;6.22;;;3.17;;
17193;SDS011;8713;48.388;10.928;2022-07-17T01:02:15;7.32;;;3.53;;
17193;SDS011;8713;48.388;10.928;2022-07-17T01:03:25;7.93;;;3.60;;
17193;SDS011;8713;48.388;10.928;2022-07-17T01:04:34;5.15;;;3.50;;
17193;SDS011;8713;48.388;10.928;2022-07-17T01:05:44;5.07;;;3.33;;
17193;SDS011;8713;48.388;10.928;2022-07-17T01:06:54;5.88;;;3.13;;
17193;SDS011;8713;48.388;10.928;2022-07-17T01:08:03;6.40;;;3.38;;
17193;SDS011;8713;48.388;10.928;2022-07-17T01:09:13;5.75;;;3.35;;
17193;SDS011;8713;48.388;10.928;2022-07-17T01:10:22;5.97;;;3.15;;
17193;SDS011;8713;48.388;10.928;2022-07-17T01:11:32;7.50;;;3.33;;
17193;SDS011;8713;48.388;10.928;2022-07-17T01:12:42;5.97;;;3.38;;
17193;SDS011;8713;48.388;10.928;2022-07-17T01:13:52;7.30;;;3.10;;
17193;SDS011;8713;48.388;10.928;2022-07-17T01:15:02;5.15;;;3.20;;
17193;SDS011;8713;48.388;10.928;2022-07-17T01:16:13;4.25;;;3.13;;
17193;SDS011;8713;48.388;10.928;2022-07-17T01:17:23;6.53;;;3.30;;
17193;SDS011;8713;48.388;10.928;2022-07-17T01:18:32;7.25;;;3.47;;
17193;SDS011;8713;48.388;10.928;2022-07-17T01:19:42;6.97;;;3.65;;
17193;SDS011;8713;48.388;10.928;2022-07-17T01:20:51;5.07;;;3.40;;
17193;SDS011;8713;48.388;10.928;2022-07-17T01:22:01;5.93;;;2.95;;
17193;SDS011;8713;48.388;10.928;2022-07-17T01:23:11;5.57;;;3.35;;
17193;SDS011;8713;48.388;10.928;2022-07-17T01:24:20;5.45;;;3.30;;
17193;SDS011;8713;48.388;10.928;2022-07-17T01:25:30;4.25;;;3.33;;
17193;SDS011;8713;48.388;10.928;2022-07-17T01:26:41;4.90;;;3.13;;
17193;SDS011;8713;48.388;10.928;2022-07-17T01:27:54;5.35;;;3.35;;
17193;SDS011;8713;48.388;10.928;2022-07-17T01:29:03;5.10;;;3.53;;
17193;SDS011;8713;48.388;10.928;2022-07-17T01:30:13;5.70;;;3.67;;
17193;SDS011;8713;48.388;10.928;2022-07-17T01:31:22;6.70;;;3.90;;
17193;SDS011;8713;48.388;10.928;2022-07-17T01:32:35;5.50;;;3.80;;
17193;SDS011;8713;48.388;10.928;2022-07-17T01:33:49;5.03;;;3.60;;
17193;SDS011;8713;48.388;10.928;2022-07-17T01:34:58;5.30;;;3.50;;
17193;SDS011;8713;48.388;10.928;2022-07-17T01:36:08;5.25;;;3.55;;
17193;SDS011;8713;48.388;10.928;2022-07-17T01:37:17;4.78;;;3.20;;
17193;SDS011;8713;48.388;10.928;2022-07-17T01:38:27;4.78;;;3.30;;
17193;SDS011;8713;48.388;10.928;2022-07-17T01:39:36;4.53;;;3.03;;
17193;SDS011;8713;48.388;10.928;2022-07-17T01:41:04;7.05;;;3.10;;
17193;SDS011;8713;48.388;10.928;2022-07-17T01:42:13;5.70;;;3.20;;
17193;SDS011;8713;48.388;10.928;2022-07-17T01:43:23;4.80;;;3.00;;
17193;SDS011;8713;48.388;10.928;2022-07-17T01:44:32;6.15;;;3.67;;
17193;SDS011;8713;48.388;10.928;2022-07-17T01:45:42;6.07;;;3.42;;
17193;SDS011;8713;48.388;10.928;2022-07-17T01:46:52;4.38;;;3.17;;
17193;SDS011;8713;48.388;10.928;2022-07-17T01:48:01;6.47;;;3.70;;
17193;SDS011;8713;48.388;10.928;2022-07-17T01:49:11;6.30;;;3.20;;
17193;SDS011;8713;48.388;10.928;2022-07-17T01:50:20;6.35;;;3.40;;
17193;SDS011;8713;48.388;10.928;2022-07-17T01:51:30;5.05;;;3.40;;
17193;SDS011;8713;48.388;10.928;2022-07-17T01:52:40;4.38;;;3.22;;
17193;SDS011;8713;48.388;10.928;2022-07-17T01:53:51;5.40;;;3.60;;
17193;SDS011;8713;48.388;10.928;2022-07-17T01:55:00;5.18;;;3.30;;
17193;SDS011;8713;48.388;10.928;2022-07-17T01:56:10;4.10;;;3.20;;
17193;SDS011;8713;48.388;10.928;2022-07-17T01:57:20;6.20;;;3.53;;
17193;SDS011;8713;48.388;10.928;2022-07-17T01:58:29;6.25;;;3.40;;
17193;SDS011;8713;48.388;10.928;2022-07-17T01:59:39;5.55;;;3.63;;
17193;SDS011;8713;48.388;10.928;2022-07-17T02:00:49;5.13;;;3.10;;
17193;SDS011;8713;48.388;10.928;2022-07-17T02:01:59;4.78;;;3.17;;
17193;SDS011;8713;48.388;10.928;2022-07-17T02:03:09;5.90;;;3.30;;
17193;SDS011;8713;48.388;10.928;2022-07-17T02:04:18;7.25;;;3.30;;
17193;SDS011;8713;48.388;10.928;2022-07-17T02:05:28;4.93;;;3.22;;
17193;SDS011;8713;48.388;10.928;2022-07-17T02:06:37;6.38;;;3.47;;
17193;SDS011;8713;48.388;10.928;2022-07-17T02:07:47;5.00;;;3.30;;
17193;SDS011;8713;48.388;10.928;2022-07-17T02:08:56;5.80;;;3.70;;
17193;SDS011;8713;48.388;10.928;2022-07-17T02:10:07;4.32;;;3.40;;
17193;SDS011;8713;48.388;10.928;2022-07-17T02:11:18;5.15;;;3.58;;
17193;SDS011;8713;48.388;10.928;2022-07-17T02:12:27;5.05;;;3.72;;
17193;SDS011;8713;48.388;10.928;2022-07-17T02:13:37;5.57;;;3.60;;
17193;SDS011;8713;48.388;10.928;2022-07-17T02:14:46;5.13;;;3.65;;
17193;SDS011;8713;48.388;10.928;2022-07-17T02:15:56;4.65;;;3.53;;
17193;SDS011;8713;48.388;10.928;2022-07-17T02:17:05;6.10;;;4.00;;
17193;SDS011;8713;48.388;10.928;2022-07-17T02:18:15;5.10;;;3.75;;
17193;SDS011;8713;48.388;10.928;2022-07-17T02:19:24;6.53;;;3.40;;
17193;SDS011;8713;48.388;10.928;2022-07-17T02:20:33;6.32;;;3.97;;
17193;SDS011;8713;48.388;10.928;2022-07-17T02:21:43;4.95;;;3.72;;
17193;SDS011;8713;48.388;10.928;2022-07-17T02:22:52;6.18;;;3.92;;
17193;SDS011;8713;48.388;10.928;2022-07-17T02:24:02;5.95;;;3.80;;
17193;SDS011;8713;48.388;10.928;2022-07-17T02:25:12;5.80;;;3.40;;
17193;SDS011;8713;48.388;10.928;2022-07-17T02:26:22;8.55;;;4.05;;
17193;SDS011;8713;48.388;10.928;2022-07-17T02:27:31;4.68;;;3.70;;
17193;SDS011;8713;48.388;10.928;2022-07-17T02:28:41;5.22;;;3.42;;
17193;SDS011;8713;48.388;10.928;2022-07-17T02:29:50;5.95;;;3.83;;
17193;SDS011;8713;48.388;10.928;2022-07-17T02:31:00;8.65;;;4.18;;
17193;SDS011;8713;48.388;10.928;2022-07-17T02:32:09;5.88;;;4.07;;
17193;SDS011;8713;48.388;10.928;2022-07-17T02:33:19;7.63;;;3.80;;
17193;SDS011;8713;48.388;10.928;2022-07-17T02:34:28;5.72;;;3.55;;
17193;SDS011;8713;48.388;10.928;2022-07-17T02:35:38;5.18;;;3.90;;
17193;SDS011;8713;48.388;10.928;2022-07-17T02:36:47;7.55;;;4.10;;
17193;SDS011;8713;48.388;10.928;2022-07-17T02:37:57;5.47;;;3.70;;
17193;SDS011;8713;48.388;10.928;2022-07-17T02:39:06;4.93;;;3.78;;
17193;SDS011;8713;48.388;10.928;2022-07-17T02:40:16;5.40;;;3.80;;
17193;SDS011;8713;48.388;10.928;2022-07-17T02:41:26;4.65;;;3.40;;
17193;SDS011;8713;48.388;10.928;2022-07-17T02:42:35;5.85;;;3.92;;
17193;SDS011;8713;48.388;10.928;2022-07-17T02:43:44;5.25;;;3.70;;
17193;SDS011;8713;48.388;10.928;2022-07-17T02:44:54;5.45;;;3.58;;
17193;SDS011;8713;48.388;10.928;2022-07-17T02:46:04;6.18;;;3.55;;
17193;SDS011;8713;48.388;10.928;2022-07-17T02:47:20;5.20;;;3.83;;
17193;SDS011;8713;48.388;10.928;2022-07-17T02:48:36;5.30;;;3.80;;
17193;SDS011;8713;48.388;10.928;2022-07-17T02:49:46;5.75;;;3.67;;
17193;SDS011;8713;48.388;10.928;2022-07-17T02:50:55;5.80;;;3.85;;
17193;SDS011;8713;48.388;10.928;2022-07-17T02:52:05;6.93;;;3.83;;
17193;SDS011;8713;48.388;10.928;2022-07-17T02:53:14;5.38;;;3.72;;
17193;SDS011;8713;48.388;10.928;2022-07-17T02:54:24;6.18;;;4.15;;
17193;SDS011;8713;48.388;10.928;2022-07-17T02:55:33;4.82;;;3.75;;
17193;SDS011;8713;48.388;10.928;2022-07-17T02:56:43;7.07;;;3.97;;
17193;SDS011;8713;48.388;10.928;2022-07-17T02:57:52;8.73;;;3.80;;
17193;SDS011;8713;48.388;10.928;2022-07-17T02:59:02;6.10;;;3.95;;
17193;SDS011;8713;48.388;10.928;2022-07-17T03:00:11;5.40;;;4.07;;
17193;SDS011;8713;48.388;10.928;2022-07-17T03:01:23;6.80;;;3.90;;
17193;SDS011;8713;48.388;10.928;2022-07-17T03:02:33;6.40;;;3.70;;
17193;SDS011;8713;48.388;10.928;2022-07-17T03:03:42;6.40;;;3.92;;
17193;SDS011;8713;48.388;10.928;2022-07-17T03:04:52;6.35;;;3.50;;
17193;SDS011;8713;48.388;10.928;2022-07-17T03:06:02;7.53;;;3.65;;
17193;SDS011;8713;48.388;10.928;2022-07-17T03:07:11;7.07;;;3.88;;
17193;SDS011;8713;48.388;10.928;2022-07-17T03:08:20;6.28;;;3.60;;
17193;SDS011;8713;48.388;10.928;2022-07-17T03:09:30;4.82;;;3.22;;
17193;SDS011;8713;48.388;10.928;2022-07-17T03:10:40;5.68;;;3.65;;
17193;SDS011;8713;48.388;10.928;2022-07-17T03:11:49;4.90;;;3.60;;
17193;SDS011;8713;48.388;10.928;2022-07-17T03:12:59;5.88;;;3.95;;
17193;SDS011;8713;48.388;10.928;2022-07-17T03:14:08;6.45;;;3.70;;
17193;SDS011;8713;48.388;10.928;2022-07-17T03:15:18;7.32;;;3.95;;
17193;SDS011;8713;48.388;10.928;2022-07-17T03:16:27;7.05;;;3.95;;
17193;SDS011;8713;48.388;10.928;2022-07-17T03:17:37;6.88;;;4.45;;
17193;SDS011;8713;48.388;10.928;2022-07-17T03:18:48;6.88;;;3.65;;
17193;SDS011;8713;48.388;10.928;2022-07-17T03:19:57;6.60;;;4.18;;
17193;SDS011;8713;48.388;10.928;2022-07-17T03:21:07;4.78;;;3.70;;
17193;SDS011;8713;48.388;10.928;2022-07-17T03:22:16;7.65;;;3.97;;
17193;SDS011;8713;48.388;10.928;2022-07-17T03:23:26;8.60;;;4.07;;
17193;SDS011;8713;48.388;10.928;2022-07-17T03:24:35;5.90;;;3.85;;
17193;SDS011;8713;48.388;10.928;2022-07-17T03:25:45;6.45;;;3.97;;
17193;SDS011;8713;48.388;10.928;2022-07-17T03:26:54;6.90;;;4.00;;
17193;SDS011;8713;48.388;10.928;2022-07-17T03:28:04;6.43;;;4.28;;
17193;SDS011;8713;48.388;10.928;2022-07-17T03:29:13;8.13;;;4.00;;
17193;SDS011;8713;48.388;10.928;2022-07-17T03:30:26;6.40;;;4.07;;
17193;SDS011;8713;48.388;10.928;2022-07-17T03:31:35;5.32;;;3.75;;
17193;SDS011;8713;48.388;10.928;2022-07-17T03:32:45;5.13;;;3.60;;
17193;SDS011;8713;48.388;10.928;2022-07-17T03:33:54;7.57;;;4.10;;
17193;SDS011;8713;48.388;10.928;2022-07-17T03:35:04;6.32;;;4.07;;
17193;SDS011;8713;48.388;10.928;2022-07-17T03:36:14;6.00;;;3.80;;
17193;SDS011;8713;48.388;10.928;2022-07-17T03:37:23;6.97;;;3.70;;
17193;SDS011;8713;48.388;10.928;2022-07-17T03:38:33;5.10;;;3.67;;
17193;SDS011;8713;48.388;10.928;2022-07-17T03:39:43;4.53;;;3.63;;
17193;SDS011;8713;48.388;10.928;2022-07-17T03:40:52;5.22;;;3.40;;
17193;SDS011;8713;48.388;10.928;2022-07-17T03:42:02;6.43;;;3.55;;
17193;SDS011;8713;48.388;10.928;2022-07-17T03:43:11;6.78;;;3.22;;
17193;SDS011;8713;48.388;10.928;2022-07-17T03:44:21;5.38;;;3.17;;
17193;SDS011;8713;48.388;10.928;2022-07-17T03:45:30;5.18;;;3.20;;
17193;SDS011;8713;48.388;10.928;2022-07-17T03:46:40;4.68;;;3.05;;
17193;SDS011;8713;48.388;10.928;2022-07-17T03:47:49;4.32;;;3.00;;
17193;SDS011;8713;48.388;10.928;2022-07-17T03:48:59;5.07;;;3.55;;
17193;SDS011;8713;48.388;10.928;2022-07-17T03:50:09;7.00;;;3.20;;
17193;SDS011;8713;48.388;10.928;2022-07-17T03:51:18;5.22;;;3.00;;
17193;SDS011;8713;48.388;10.928;2022-07-17T03:52:28;5.18;;;3.40;;
17193;SDS011;8713;48.388;10.928;2022-07-17T03:53:38;3.83;;;2.83;;
17193;SDS011;8713;48.388;10.928;2022-07-17T03:54:47;6.18;;;3.22;;
17193;SDS011;8713;48.388;10.928;2022-07-17T03:55:56;4.38;;;3.30;;
17193;SDS011;8713;48.388;10.928;2022-07-17T03:57:06;4.28;;;3.15;;
17193;SDS011;8713;48.388;10.928;2022-07-17T03:58:15;4.20;;;3.00;;
17193;SDS011;8713;48.388;10.928;2022-07-17T03:59:25;5.25;;;3.33;;
17193;SDS011;8713;48.388;10.928;2022-07-17T04:00:35;5.40;;;3.05;;
17193;SDS011;8713;48.388;10.928;2022-07-17T04:01:44;10.00;;;3.40;;
17193;SDS011;8713;48.388;10.928;2022-07-17T04:02:54;6.30;;;2.90;;
17193;SDS011;8713;48.388;10.928;2022-07-17T04:04:03;6.05;;;2.97;;
17193;SDS011;8713;48.388;10.928;2022-07-17T04:05:13;5.63;;;3.20;;
17193;SDS011;8713;48.388;10.928;2022-07-17T04:06:22;6.65;;;3.00;;
17193;SDS011;8713;48.388;10.928;2022-07-17T04:07:32;4.47;;;3.00;;
17193;SDS011;8713;48.388;10.928;2022-07-17T04:08:42;4.28;;;3.28;;
17193;SDS011;8713;48.388;10.928;2022-07-17T04:09:52;5.13;;;3.00;;
17193;SDS011;8713;48.388;10.928;2022-07-17T04:11:05;6.10;;;3.42;;
17193;SDS011;8713;48.388;10.928;2022-07-17T04:12:15;6.85;;;2.85;;
17193;SDS011;8713;48.388;10.928;2022-07-17T04:13:24;4.40;;;3.15;;
17193;SDS011;8713;48.388;10.928;2022-07-17T04:14:34;5.50;;;3.00;;
17193;SDS011;8713;48.388;10.928;2022-07-17T04:15:43;4.72;;;3.00;;
17193;SDS011;8713;48.388;10.928;2022-07-17T04:17:01;4.32;;;3.00;;
17193;SDS011;8713;48.388;10.928;2022-07-17T04:18:10;4.07;;;2.88;;
17193;SDS011;8713;48.388;10.928;2022-07-17T04:19:20;5.22;;;3.00;;
17193;SDS011;8713;48.388;10.928;2022-07-17T04:20:29;5.72;;;2.97;;
17193;SDS011;8713;48.388;10.928;2022-07-17T04:21:38;5.03;;;3.03;;
17193;SDS011;8713;48.388;10.928;2022-07-17T04:22:48;3.40;;;3.00;;
17193;SDS011;8713;48.388;10.928;2022-07-17T04:23:57;4.43;;;3.17;;
17193;SDS011;8713;48.388;10.928;2022-07-17T04:25:07;6.70;;;3.20;;
17193;SDS011;8713;48.388;10.928;2022-07-17T04:26:17;4.88;;;3.00;;
17193;SDS011;8713;48.388;10.928;2022-07-17T04:27:26;3.33;;;2.72;;
17193;SDS011;8713;48.388;10.928;2022-07-17T04:28:36;5.18;;;2.90;;
17193;SDS011;8713;48.388;10.928;2022-07-17T04:29:46;4.25;;;2.72;;
17193;SDS011;8713;48.388;10.928;2022-07-17T04:30:56;3.80;;;2.78;;
17193;SDS011;8713;48.388;10.928;2022-07-17T04:32:05;4.43;;;3.20;;
17193;SDS011;8713;48.388;10.928;2022-07-17T04:33:16;6.50;;;3.00;;
17193;SDS011;8713;48.388;10.928;2022-07-17T04:34:25;4.30;;;2.80;;
17193;SDS011;8713;48.388;10.928;2022-07-17T04:35:34;3.97;;;2.85;;
17193;SDS011;8713;48.388;10.928;2022-07-17T04:36:44;3.97;;;2.78;;
17193;SDS011;8713;48.388;10.928;2022-07-17T04:37:53;7.28;;;3.03;;
17193;SDS011;8713;48.388;10.928;2022-07-17T04:39:03;5.05;;;2.58;;
17193;SDS011;8713;48.388;10.928;2022-07-17T04:40:12;5.75;;;2.90;;
17193;SDS011;8713;48.388;10.928;2022-07-17T04:41:22;8.02;;;2.88;;
17193;SDS011;8713;48.388;10.928;2022-07-17T04:42:31;4.00;;;2.80;;
17193;SDS011;8713;48.388;10.928;2022-07-17T04:43:41;4.60;;;2.90;;
17193;SDS011;8713;48.388;10.928;2022-07-17T04:44:50;8.43;;;2.70;;
17193;SDS011;8713;48.388;10.928;2022-07-17T04:46:00;4.10;;;2.53;;
17193;SDS011;8713;48.388;10.928;2022-07-17T04:47:09;6.25;;;2.67;;
17193;SDS011;8713;48.388;10.928;2022-07-17T04:48:19;5.70;;;2.90;;
17193;SDS011;8713;48.388;10.928;2022-07-17T04:49:28;4.80;;;2.38;;
17193;SDS011;8713;48.388;10.928;2022-07-17T04:50:38;3.38;;;2.47;;
17193;SDS011;8713;48.388;10.928;2022-07-17T04:51:47;4.53;;;2.72;;
17193;SDS011;8713;48.388;10.928;2022-07-17T04:52:57;5.10;;;2.60;;
17193;SDS011;8713;48.388;10.928;2022-07-17T04:54:06;5.97;;;2.42;;
17193;SDS011;8713;48.388;10.928;2022-07-17T04:55:16;6.35;;;2.30;;
17193;SDS011;8713;48.388;10.928;2022-07-17T04:56:25;3.65;;;2.50;;
17193;SDS011;8713;48.388;10.928;2022-07-17T04:57:35;3.55;;;2.55;;
17193;SDS011;8713;48.388;10.928;2022-07-17T04:58:44;4.85;;;2.60;;
17193;SDS011;8713;48.388;10.928;2022-07-17T04:59:54;3.75;;;2.70;;
17193;SDS011;8713;48.388;10.928;2022-07-17T05:01:04;5.30;;;2.50;;
17193;SDS011;8713;48.388;10.928;2022-07-17T05:02:13;3.97;;;2.60;;
17193;SDS011;8713;48.388;10.928;2022-07-17T05:03:23;3.42;;;2.35;;
17193;SDS011;8713;48.388;10.928;2022-07-17T05:04:32;3.85;;;2.35;;
17193;SDS011;8713;48.388;10.928;2022-07-17T05:05:42;3.17;;;2.13;;
17193;SDS011;8713;48.388;10.928;2022-07-17T05:06:51;5.97;;;2.50;;
17193;SDS011;8713;48.388;10.928;2022-07-17T05:08:01;4.90;;;2.53;;
17193;SDS011;8713;48.388;10.928;2022-07-17T05:09:10;4.65;;;2.20;;
17193;SDS011;8713;48.388;10.928;2022-07-17T05:10:20;5.88;;;2.38;;
17193;SDS011;8713;48.388;10.928;2022-07-17T05:11:29;4.32;;;2.38;;
17193;SDS011;8713;48.388;10.928;2022-07-17T05:12:39;5.60;;;2.28;;
17193;SDS011;8713;48.388;10.928;2022-07-17T05:13:49;3.53;;;2.22;;
17193;SDS011;8713;48.388;10.928;2022-07-17T05:14:58;3.03;;;2.17;;
17193;SDS011;8713;48.388;10.928;2022-07-17T05:16:08;3.47;;;2.33;;
17193;SDS011;8713;48.388;10.928;2022-07-17T05:17:17;3.28;;;2.25;;
17193;SDS011;8713;48.388;10.928;2022-07-17T05:18:27;3.78;;;2.22;;
17193;SDS011;8713;48.388;10.928;2022-07-17T05:19:36;4.43;;;2.78;;
17193;SDS011;8713;48.388;10.928;2022-07-17T05:20:46;4.28;;;2.33;;
17193;SDS011;8713;48.388;10.928;2022-07-17T05:21:55;8.27;;;2.65;;
17193;SDS011;8713;48.388;10.928;2022-07-17T05:23:05;3.03;;;2.50;;
17193;SDS011;8713;48.388;10.928;2022-07-17T05:24:15;2.92;;;2.00;;
17193;SDS011;8713;48.388;10.928;2022-07-17T05:25:24;3.60;;;2.20;;
17193;SDS011;8713;48.388;10.928;2022-07-17T05:26:34;3.25;;;2.15;;
17193;SDS011;8713;48.388;10.928;2022-07-17T05:27:43;3.60;;;2.42;;
17193;SDS011;8713;48.388;10.928;2022-07-17T05:28:53;3.38;;;2.40;;
17193;SDS011;8713;48.388;10.928;2022-07-17T05:30:03;4.88;;;2.10;;
17193;SDS011;8713;48.388;10.928;2022-07-17T05:31:12;4.07;;;2.40;;
17193;SDS011;8713;48.388;10.928;2022-07-17T05:32:22;4.05;;;2.03;;
17193;SDS011;8713;48.388;10.928;2022-07-17T05:33:31;5.22;;;2.22;;
17193;SDS011;8713;48.388;10.928;2022-07-17T05:34:41;2.75;;;2.15;;
17193;SDS011;8713;48.388;10.928;2022-07-17T05:35:51;3.67;;;2.13;;
17193;SDS011;8713;48.388;10.928;2022-07-17T05:37:00;3.13;;;1.85;;
17193;SDS011;8713;48.388;10.928;2022-07-17T05:38:10;5.65;;;2.40;;
17193;SDS011;8713;48.388;10.928;2022-07-17T05:39:20;4.03;;;2.03;;
17193;SDS011;8713;48.388;10.928;2022-07-17T05:40:29;4.72;;;1.80;;
17193;SDS011;8713;48.388;10.928;2022-07-17T05:41:38;4.43;;;2.20;;
17193;SDS011;8713;48.388;10.928;2022-07-17T05:42:48;2.72;;;2.10;;
17193;SDS011;8713;48.388;10.928;2022-07-17T05:43:58;3.15;;;2.15;;
17193;SDS011;8713;48.388;10.928;2022-07-17T05:45:07;3.92;;;2.00;;
17193;SDS011;8713;48.388;10.928;2022-07-17T05:46:17;2.97;;;2.10;;
17193;SDS011;8713;48.388;10.928;2022-07-17T05:47:27;5.03;;;2.10;;
17193;SDS011;8713;48.388;10.928;2022-07-17T05:48:37;4.85;;;2.03;;
17193;SDS011;8713;48.388;10.928;2022-07-17T05:49:46;4.10;;;2.00;;
17193;SDS011;8713;48.388;10.928;2022-07-17T05:50:55;5.90;;;2.00;;
17193;SDS011;8713;48.388;10.928;2022-07-17T05:52:05;4.10;;;2.20;;
17193;SDS011;8713;48.388;10.928;2022-07-17T05:53:15;5.35;;;2.10;;
17193;SDS011;8713;48.388;10.928;2022-07-17T05:54:24;3.22;;;2.10;;
17193;SDS011;8713;48.388;10.928;2022-07-17T05:55:34;3.50;;;2.15;;
17193;SDS011;8713;48.388;10.928;2022-07-17T05:56:43;4.07;;;2.35;;
17193;SDS011;8713;48.388;10.928;2022-07-17T05:57:52;3.05;;;2.00;;
17193;SDS011;8713;48.388;10.928;2022-07-17T05:59:02;4.22;;;2.10;;
17193;SDS011;8713;48.388;10.928;2022-07-17T06:00:12;3.33;;;1.80;;
17193;SDS011;8713;48.388;10.928;2022-07-17T06:01:21;2.58;;;1.98;;
17193;SDS011;8713;48.388;10.928;2022-07-17T06:02:31;5.55;;;2.10;;
17193;SDS011;8713;48.388;10.928;2022-07-17T06:03:40;3.38;;;2.13;;
17193;SDS011;8713;48.388;10.928;2022-07-17T06:04:50;3.35;;;2.17;;
17193;SDS011;8713;48.388;10.928;2022-07-17T06:05:59;3.75;;;2.30;;
17193;SDS011;8713;48.388;10.928;2022-07-17T06:07:09;4.22;;;1.98;;
17193;SDS011;8713;48.388;10.928;2022-07-17T06:08:18;4.25;;;1.88;;
17193;SDS011;8713;48.388;10.928;2022-07-17T06:09:28;3.25;;;2.13;;
17193;SDS011;8713;48.388;10.928;2022-07-17T06:10:37;3.13;;;1.85;;
17193;SDS011;8713;48.388;10.928;2022-07-17T06:11:47;2.72;;;2.22;;
17193;SDS011;8713;48.388;10.928;2022-07-17T06:12:56;2.70;;;2.00;;
17193;SDS011;8713;48.388;10.928;2022-07-17T06:14:06;3.42;;;1.73;;
17193;SDS011;8713;48.388;10.928;2022-07-17T06:15:15;3.28;;;2.13;;
17193;SDS011;8713;48.388;10.928;2022-07-17T06:16:25;3.08;;;1.90;;
17193;SDS011;8713;48.388;10.928;2022-07-17T06:17:34;2.65;;;1.85;;
17193;SDS011;8713;48.388;10.928;2022-07-17T06:18:44;2.95;;;1.83;;
17193;SDS011;8713;48.388;10.928;2022-07-17T06:19:53;2.42;;;1.70;;
17193;SDS011;8713;48.388;10.928;2022-07-17T06:21:03;3.03;;;1.60;;
17193;SDS011;8713;48.388;10.928;2022-07-17T06:22:12;4.63;;;1.83;;
17193;SDS011;8713;48.388;10.928;2022-07-17T06:23:22;3.47;;;1.85;;
17193;SDS011;8713;48.388;10.928;2022-07-17T06:24:31;4.75;;;1.90;;
17193;SDS011;8713;48.388;10.928;2022-07-17T06:25:40;2.67;;;1.73;;
17193;SDS011;8713;48.388;10.928;2022-07-17T06:26:50;3.88;;;1.90;;
17193;SDS011;8713;48.388;10.928;2022-07-17T06:27:59;4.13;;;1.77;;
17193;SDS011;8713;48.388;10.928;2022-07-17T06:29:09;3.50;;;1.75;;
17193;SDS011;8713;48.388;10.928;2022-07-17T06:30:18;3.40;;;1.85;;
17193;SDS011;8713;48.388;10.928;2022-07-17T06:31:27;2.13;;;1.58;;
17193;SDS011;8713;48.388;10.928;2022-07-17T06:32:37;4.00;;;1.88;;
17193;SDS011;8713;48.388;10.928;2022-07-17T06:33:47;2.95;;;1.83;;
17193;SDS011;8713;48.388;10.928;2022-07-17T06:34:56;2.17;;;1.70;;
17193;SDS011;8713;48.388;10.928;2022-07-17T06:36:06;3.70;;;1.60;;
17193;SDS011;8713;48.388;10.928;2022-07-17T06:37:15;1.90;;;1.60;;
17193;SDS011;8713;48.388;10.928;2022-07-17T06:38:25;3.05;;;1.85;;
17193;SDS011;8713;48.388;10.928;2022-07-17T06:39:34;3.35;;;1.60;;
17193;SDS011;8713;48.388;10.928;2022-07-17T06:40:44;2.38;;;1.60;;
17193;SDS011;8713;48.388;10.928;2022-07-17T06:41:53;5.32;;;1.70;;
17193;SDS011;8713;48.388;10.928;2022-07-17T06:43:04;2.80;;;1.88;;
17193;SDS011;8713;48.388;10.928;2022-07-17T06:44:15;3.10;;;1.90;;
17193;SDS011;8713;48.388;10.928;2022-07-17T06:45:24;3.53;;;1.50;;
17193;SDS011;8713;48.388;10.928;2022-07-17T06:46:33;3.40;;;1.80;;
17193;SDS011;8713;48.388;10.928;2022-07-17T06:47:43;2.53;;;1.73;;
17193;SDS011;8713;48.388;10.928;2022-07-17T06:48:52;2.63;;;1.70;;
17193;SDS011;8713;48.388;10.928;2022-07-17T06:50:02;3.08;;;1.80;;
17193;SDS011;8713;48.388;10.928;2022-07-17T06:51:11;4.50;;;1.90;;
17193;SDS011;8713;48.388;10.928;2022-07-17T06:52:21;4.07;;;1.83;;
17193;SDS011;8713;48.388;10.928;2022-07-17T06:53:30;4.32;;;1.90;;
17193;SDS011;8713;48.388;10.928;2022-07-17T06:54:40;6.90;;;1.75;;
17193;SDS011;8713;48.388;10.928;2022-07-17T06:55:49;2.78;;;1.80;;
17193;SDS011;8713;48.388;10.928;2022-07-17T06:56:58;2.30;;;1.50;;
17193;SDS011;8713;48.388;10.928;2022-07-17T06:58:08;4.20;;;1.65;;
17193;SDS011;8713;48.388;10.928;2022-07-17T06:59:17;2.72;;;1.50;;
17193;SDS011;8713;48.388;10.928;2022-07-17T07:00:27;3.15;;;1.52;;